Time;durP1;ratioP1;P1;durP2;ratioP2;P2;SDS_P1;SDS_P2;PMS_P1;PMS_P2;Temp;Humidity;BMP_temperature;BMP_pressure;BME280_temperature;BME280_humidity;BME280_pressure;Samples;Min_cycle;Max_cycle;Signal;HPM_P1;HPM_P2
2021/09/03 00:02:02;;;;;;;8.25;4.53;;;;;;;12.21;94.00;97101.19;5043977;28;20041;-68
2021/09/03 00:04:28;;;;;;;9.18;5.05;;;;;;;12.15;94.04;97097.94;5036825;28;20049;-68
2021/09/03 00:06:53;;;;;;;7.43;4.78;;;;;;;12.13;94.41;97092.03;5040349;28;20045;-68
2021/09/03 00:09:19;;;;;;;8.38;4.80;;;;;;;12.13;95.20;97100.28;5037888;28;20045;-68
2021/09/03 00:11:44;;;;;;;9.10;5.63;;;;;;;12.18;95.53;97093.69;5042283;28;20043;-68
2021/09/03 00:14:10;;;;;;;10.63;4.95;;;;;;;12.13;95.21;97099.47;5034955;28;20137;-64
2021/09/03 00:16:37;;;;;;;8.48;5.05;;;;;;;12.16;95.88;97098.75;5042753;28;20041;-68
2021/09/03 00:19:05;;;;;;;9.27;6.15;;;;;;;11.89;96.44;97106.91;5034048;28;20041;-65
2021/09/03 00:21:31;;;;;;;8.60;5.43;;;;;;;11.74;96.89;97100.38;5023232;28;20402;-67
2021/09/03 00:23:56;;;;;;;7.80;4.72;;;;;;;11.54;99.43;97096.06;5040099;28;20498;-68
2021/09/03 00:26:22;;;;;;;9.07;5.10;;;;;;;11.63;99.61;97083.72;5036178;28;20117;-67
2021/09/03 00:28:47;;;;;;;10.60;5.05;;;;;;;11.59;98.82;97084.78;5038718;28;20376;-67
2021/09/03 00:31:12;;;;;;;9.43;5.25;;;;;;;11.46;99.23;97084.94;5034526;28;20053;-68
2021/09/03 00:33:38;;;;;;;10.43;4.68;;;;;;;11.40;99.29;97089.16;5040633;28;20433;-67
2021/09/03 00:36:04;;;;;;;8.05;4.78;;;;;;;11.53;99.82;97081.56;5057196;28;20040;-64
2021/09/03 00:38:29;;;;;;;8.98;4.80;;;;;;;11.62;99.16;97081.31;5061724;28;20036;-68
2021/09/03 00:40:54;;;;;;;7.47;4.95;;;;;;;11.57;98.23;97076.13;5058140;28;20041;-67
2021/09/03 00:43:20;;;;;;;9.13;4.88;;;;;;;11.62;98.56;97086.81;5045185;28;20460;-66
2021/09/03 00:45:45;;;;;;;8.80;5.38;;;;;;;11.68;98.28;97085.34;5056411;28;20505;-68
2021/09/03 00:48:11;;;;;;;8.48;4.93;;;;;;;11.67;98.39;97076.34;5056771;28;20051;-67
2021/09/03 00:50:36;;;;;;;15.45;5.40;;;;;;;11.68;98.14;97079.84;5063709;28;20413;-64
2021/09/03 00:53:04;;;;;;;8.85;4.95;;;;;;;11.61;97.68;97068.75;5072179;28;20040;-63
2021/09/03 00:55:30;;;;;;;8.57;5.28;;;;;;;11.35;98.78;97066.72;5073260;28;20374;-67
2021/09/03 00:57:55;;;;;;;9.20;5.18;;;;;;;11.36;99.09;97071.84;5066678;28;20039;-67
2021/09/03 01:00:21;;;;;;;8.70;4.65;;;;;;;11.28;98.43;97076.38;5067827;28;20676;-65
2021/09/03 01:02:46;;;;;;;10.20;4.70;;;;;;;11.09;97.87;97074.44;5061650;28;20043;-66
2021/09/03 01:05:12;;;;;;;10.60;4.78;;;;;;;11.08;98.88;97083.03;5067829;28;20036;-67
2021/09/03 01:07:38;;;;;;;10.77;5.13;;;;;;;11.23;100.00;97090.38;5081697;28;20059;-65
2021/09/03 01:10:04;;;;;;;10.35;4.93;;;;;;;11.21;100.00;97078.97;5077501;28;20073;-64
2021/09/03 01:12:30;;;;;;;8.65;5.20;;;;;;;10.99;98.75;97087.94;5081785;28;20048;-68
2021/09/03 01:14:55;;;;;;;12.43;5.97;;;;;;;10.78;100.00;97080.84;5081916;28;20036;-67
2021/09/03 01:17:21;;;;;;;8.88;5.00;;;;;;;10.71;100.00;97081.50;5075611;28;22160;-67
2021/09/03 01:19:50;;;;;;;9.55;5.93;;;;;;;10.61;100.00;97079.31;5082022;28;20119;-66
2021/09/03 01:22:19;;;;;;;10.18;5.68;;;;;;;10.48;100.00;97073.16;5074005;28;20036;-66
2021/09/03 01:24:45;;;;;;;8.32;5.40;;;;;;;10.47;100.00;97077.03;5078139;28;20040;-66
2021/09/03 01:27:10;;;;;;;9.00;5.43;;;;;;;10.57;100.00;97083.09;5076906;28;20400;-67
2021/09/03 01:29:36;;;;;;;8.45;5.18;;;;;;;10.61;100.00;97076.56;5081646;27;20040;-67
2021/09/03 01:32:01;;;;;;;9.48;5.22;;;;;;;10.50;100.00;97076.31;5080438;28;20404;-67
2021/09/03 01:34:26;;;;;;;7.80;5.00;;;;;;;10.42;100.00;97071.03;5074365;28;20105;-67
2021/09/03 01:36:52;;;;;;;9.75;5.63;;;;;;;10.27;100.00;97075.38;5052425;28;20044;-66
2021/09/03 01:39:17;;;;;;;9.25;5.40;;;;;;;10.32;100.00;97075.91;5053656;28;20040;-67
2021/09/03 01:41:43;;;;;;;9.20;5.30;;;;;;;10.05;100.00;97072.13;5055792;28;20078;-67
2021/09/03 01:44:10;;;;;;;17.60;9.40;;;;;;;9.66;100.00;97071.13;5055911;28;20443;-67
2021/09/03 01:46:37;;;;;;;9.98;5.97;;;;;;;9.66;100.00;97074.66;5061125;28;20055;-67
2021/09/03 01:49:02;;;;;;;12.35;5.70;;;;;;;9.90;100.00;97079.19;5057567;28;20047;-63
2021/09/03 01:51:29;;;;;;;12.38;6.45;;;;;;;9.88;100.00;97089.66;5055475;28;20036;-65
2021/09/03 01:53:54;;;;;;;7.75;5.38;;;;;;;9.89;100.00;97079.53;5070064;28;20044;-65
2021/09/03 01:56:20;;;;;;;10.20;5.38;;;;;;;9.84;100.00;97077.84;5063925;28;20075;-65
2021/09/03 01:58:46;;;;;;;11.52;6.20;;;;;;;9.92;100.00;97068.69;5064449;28;20065;-66
2021/09/03 02:01:11;;;;;;;8.95;5.22;;;;;;;10.11;100.00;97067.94;5046090;28;20037;-66
2021/09/03 02:03:37;;;;;;;9.10;5.00;;;;;;;10.29;100.00;97071.09;5053802;28;20198;-67
2021/09/03 02:06:02;;;;;;;13.20;5.80;;;;;;;10.47;100.00;97068.03;5059509;28;20033;-64
2021/09/03 02:08:28;;;;;;;9.90;4.95;;;;;;;10.52;100.00;97068.53;5057452;28;20219;-67
2021/09/03 02:10:53;;;;;;;10.40;5.55;;;;;;;10.47;100.00;97063.34;5060441;28;20055;-67
2021/09/03 02:13:19;;;;;;;12.35;5.95;;;;;;;10.49;100.00;97057.50;5055000;28;20036;-65
2021/09/03 02:15:44;;;;;;;12.55;5.30;;;;;;;10.33;100.00;97060.28;5060907;28;20043;-66
2021/09/03 02:18:10;;;;;;;13.18;6.43;;;;;;;9.92;100.00;97060.47;5054790;28;20431;-66
2021/09/03 02:20:35;;;;;;;10.35;6.13;;;;;;;9.73;100.00;97060.38;5060072;28;20663;-66
2021/09/03 02:23:00;;;;;;;11.38;6.32;;;;;;;9.73;100.00;97063.09;5060153;28;20105;-65
2021/09/03 02:25:26;;;;;;;11.35;6.13;;;;;;;9.75;100.00;97066.28;5071113;28;20398;-65
2021/09/03 02:27:51;;;;;;;7.90;5.40;;;;;;;9.66;100.00;97060.97;5077590;28;20393;-66
2021/09/03 02:30:17;;;;;;;12.10;6.03;;;;;;;9.69;100.00;97057.53;5053955;28;20505;-66
2021/09/03 02:32:42;;;;;;;11.00;5.97;;;;;;;9.73;100.00;97054.91;5060423;28;20041;-66
2021/09/03 02:35:08;;;;;;;9.23;5.95;;;;;;;9.83;100.00;97057.13;5054094;28;20277;-66
2021/09/03 02:37:34;;;;;;;9.77;5.90;;;;;;;10.02;100.00;97053.66;5058338;28;20044;-65
2021/09/03 02:39:59;;;;;;;10.40;6.10;;;;;;;10.06;100.00;97054.53;5060538;28;20079;-65
2021/09/03 02:42:24;;;;;;;10.25;5.35;;;;;;;9.99;100.00;97070.00;5052609;28;20044;-67
2021/09/03 02:44:50;;;;;;;10.48;5.57;;;;;;;9.89;100.00;97072.09;5060614;28;20101;-65
2021/09/03 02:47:15;;;;;;;8.85;5.85;;;;;;;9.70;100.00;97072.78;5055102;28;20044;-65
2021/09/03 02:49:41;;;;;;;10.75;5.95;;;;;;;9.74;100.00;97054.56;5058655;28;20076;-66
2021/09/03 02:52:06;;;;;;;11.93;5.72;;;;;;;9.96;100.00;97052.34;5055132;28;20131;-65
2021/09/03 02:54:32;;;;;;;10.32;6.15;;;;;;;10.15;100.00;97057.09;5057657;28;20049;-66
2021/09/03 02:56:57;;;;;;;9.60;6.18;;;;;;;10.17;100.00;97054.78;5060176;28;20040;-66
2021/09/03 02:59:23;;;;;;;10.48;5.80;;;;;;;9.94;100.00;97043.69;5064532;28;20634;-65
2021/09/03 03:01:48;;;;;;;8.35;5.60;;;;;;;9.76;100.00;97043.25;5060472;28;20048;-65
2021/09/03 03:04:13;;;;;;;10.38;5.05;;;;;;;9.65;100.00;97045.72;5059749;28;20040;-66
2021/09/03 03:06:39;;;;;;;11.13;5.25;;;;;;;9.73;100.00;97041.22;5080307;28;20036;-67
2021/09/03 03:09:04;;;;;;;9.13;5.63;;;;;;;9.82;100.00;97047.31;5072397;28;20146;-62
2021/09/03 03:11:30;;;;;;;10.23;5.15;;;;;;;9.85;100.00;97052.09;5077604;28;20040;-66
2021/09/03 03:14:11;;;;;;;15.02;5.97;;;;;;;9.82;100.00;97043.78;5073718;28;20040;-66
2021/09/03 03:16:36;;;;;;;12.57;6.53;;;;;;;9.62;100.00;97051.09;5052495;28;20037;-67
2021/09/03 03:19:02;;;;;;;7.72;5.22;;;;;;;9.43;100.00;97049.81;5038361;28;20044;-63
2021/09/03 03:21:28;;;;;;;10.00;5.88;;;;;;;9.29;100.00;97049.44;5017937;28;20041;-66
2021/09/03 03:23:54;;;;;;;12.02;6.75;;;;;;;9.11;100.00;97048.97;5039907;28;20110;-66
2021/09/03 03:26:19;;;;;;;11.43;5.72;;;;;;;9.08;100.00;97047.72;5033957;28;20480;-64
2021/09/03 03:28:45;;;;;;;10.05;6.00;;;;;;;8.99;100.00;97047.88;5037560;28;20048;-67
2021/09/03 03:31:10;;;;;;;10.85;6.72;;;;;;;8.90;100.00;97043.72;5029604;28;20139;-64
2021/09/03 03:33:36;;;;;;;9.27;5.32;;;;;;;8.79;100.00;97048.88;5036505;28;20076;-67
2021/09/03 03:36:01;;;;;;;11.35;6.15;;;;;;;8.77;100.00;97051.94;5026972;28;20136;-67
2021/09/03 03:38:26;;;;;;;15.98;6.55;;;;;;;8.73;100.00;97050.25;5015803;28;20045;-67
2021/09/03 03:40:52;;;;;;;11.02;6.20;;;;;;;8.84;100.00;97048.63;5054294;28;20041;-66
2021/09/03 03:43:17;;;;;;;9.25;5.65;;;;;;;8.90;100.00;97046.44;5054331;28;20040;-66
2021/09/03 03:45:43;;;;;;;10.93;6.13;;;;;;;9.09;100.00;97056.72;5059380;28;20069;-65
2021/09/03 03:48:08;;;;;;;12.55;5.95;;;;;;;9.20;100.00;97055.09;5052741;28;20045;-66
2021/09/03 03:50:33;;;;;;;11.00;5.50;;;;;;;9.22;100.00;97050.06;5059604;28;20045;-66
2021/09/03 03:52:59;;;;;;;9.15;5.40;;;;;;;9.26;100.00;97045.50;5059059;28;20040;-67
2021/09/03 03:55:24;;;;;;;9.75;5.82;;;;;;;9.30;100.00;97051.06;5053034;28;20063;-67
2021/09/03 03:57:50;;;;;;;7.53;4.70;;;;;;;9.32;100.00;97043.28;5057181;28;20048;-66
2021/09/03 04:00:16;;;;;;;9.90;5.32;;;;;;;9.35;100.00;97050.81;5054070;28;20155;-66
2021/09/03 04:02:41;;;;;;;8.30;4.97;;;;;;;9.26;100.00;97042.75;5055910;28;20048;-67
2021/09/03 04:05:07;;;;;;;11.32;5.93;;;;;;;9.33;100.00;97053.09;5052002;28;20506;-66
2021/09/03 04:07:33;;;;;;;10.25;6.03;;;;;;;9.21;100.00;97044.94;5051413;28;20040;-66
2021/09/03 04:09:58;;;;;;;8.90;5.45;;;;;;;8.87;100.00;97047.91;5059506;28;20573;-66
2021/09/03 04:12:29;;;;;;;9.27;5.72;;;;;;;8.62;100.00;97047.19;5053389;28;20036;-63
2021/09/03 04:14:54;;;;;;;11.05;6.05;;;;;;;8.51;100.00;97049.59;5063367;28;20047;-65
2021/09/03 04:17:19;;;;;;;14.30;6.85;;;;;;;8.32;100.00;97046.66;5058126;28;20044;-66
2021/09/03 04:19:45;;;;;;;10.63;6.15;;;;;;;8.30;100.00;97044.28;5063120;28;20516;-66
2021/09/03 04:22:10;;;;;;;11.20;5.88;;;;;;;8.50;100.00;97045.31;5056350;28;20041;-65
2021/09/03 04:24:36;;;;;;;20.63;5.32;;;;;;;8.52;100.00;97053.16;5061923;28;20505;-67
2021/09/03 04:27:01;;;;;;;13.07;6.68;;;;;;;8.48;100.00;97046.78;5062526;28;20091;-66
2021/09/03 04:29:27;;;;;;;10.73;5.93;;;;;;;8.53;100.00;97050.06;5058549;28;20406;-65
2021/09/03 04:31:52;;;;;;;13.63;5.50;;;;;;;8.76;100.00;97041.34;5062923;28;20063;-66
2021/09/03 04:34:17;;;;;;;9.20;5.50;;;;;;;8.84;100.00;97037.72;5054851;28;20048;-67
2021/09/03 04:36:43;;;;;;;9.75;5.70;;;;;;;9.07;100.00;97043.41;5052639;28;20041;-66
2021/09/03 04:39:08;;;;;;;9.57;5.68;;;;;;;9.11;100.00;97044.31;5052280;28;20048;-67
2021/09/03 04:41:34;;;;;;;11.02;6.28;;;;;;;9.15;100.00;97047.16;5052743;28;20500;-66
2021/09/03 04:44:00;;;;;;;15.82;6.40;;;;;;;9.18;100.00;97044.50;5049067;28;20127;-66
2021/09/03 04:46:25;;;;;;;12.38;6.13;;;;;;;9.19;100.00;97050.75;5049372;28;20040;-67
2021/09/03 04:48:51;;;;;;;9.13;5.70;;;;;;;9.16;100.00;97049.53;5066391;28;20051;-67
2021/09/03 04:51:16;;;;;;;9.85;6.05;;;;;;;9.06;100.00;97060.94;5066841;28;20470;-66
2021/09/03 04:53:42;;;;;;;9.50;5.63;;;;;;;8.99;100.00;97056.06;5068044;28;20132;-65
2021/09/03 04:56:07;;;;;;;10.73;5.90;;;;;;;9.03;100.00;97060.84;5050341;28;20040;-65
2021/09/03 04:58:32;;;;;;;12.75;6.90;;;;;;;8.96;100.00;97062.22;5051751;28;20358;-67
2021/09/03 05:00:58;;;;;;;12.07;6.75;;;;;;;8.93;100.00;97059.38;5052370;28;20119;-66
2021/09/03 05:03:23;;;;;;;9.50;6.32;;;;;;;9.12;100.00;97064.22;5040074;28;20528;-65
2021/09/03 05:05:49;;;;;;;11.40;7.07;;;;;;;9.25;100.00;97063.03;5059370;28;20044;-65
2021/09/03 05:08:14;;;;;;;12.75;6.50;;;;;;;9.40;100.00;97064.22;5057447;28;20041;-65
2021/09/03 05:10:39;;;;;;;10.05;6.32;;;;;;;9.57;100.00;97055.66;5056792;28;20079;-66
2021/09/03 05:13:05;;;;;;;11.00;6.13;;;;;;;9.73;100.00;97063.09;5053078;28;20040;-66
2021/09/03 05:15:35;;;;;;;8.25;5.40;;;;;;;9.87;100.00;97057.22;5059400;28;20043;-66
2021/09/03 05:18:00;;;;;;;10.10;5.63;;;;;;;10.12;100.00;97058.59;5061122;28;20036;-65
2021/09/03 05:20:26;;;;;;;8.35;5.35;;;;;;;10.75;100.00;97050.63;5047384;28;20510;-66
2021/09/03 05:22:51;;;;;;;8.70;5.75;;;;;;;11.65;95.12;97058.66;5049209;28;20072;-67
2021/09/03 05:25:17;;;;;;;10.85;5.35;;;;;;;12.92;87.00;97051.97;5035940;28;20068;-67
2021/09/03 05:27:43;;;;;;;9.07;4.70;;;;;;;13.49;81.14;97051.88;5040486;28;20071;-67
2021/09/03 05:30:10;;;;;;;7.97;4.75;;;;;;;14.76;76.65;97053.69;5037141;28;20045;-66
2021/09/03 05:32:36;;;;;;;9.73;4.63;;;;;;;14.89;73.27;97052.19;5041843;28;20044;-65
2021/09/03 05:35:04;;;;;;;10.43;4.90;;;;;;;14.93;73.72;97055.75;5060438;28;20040;-64
2021/09/03 05:37:30;;;;;;;8.10;4.18;;;;;;;15.65;71.92;97053.25;5057859;28;20131;-67
2021/09/03 05:39:55;;;;;;;7.28;4.13;;;;;;;16.00;68.14;97057.25;5060455;28;20127;-67
2021/09/03 05:42:20;;;;;;;7.47;4.22;;;;;;;16.40;67.59;97055.28;5056581;28;20064;-66
2021/09/03 05:44:46;;;;;;;13.25;6.50;;;;;;;17.77;62.38;97059.16;5059537;28;20102;-66
2021/09/03 05:47:11;;;;;;;12.23;4.60;;;;;;;18.86;59.16;97059.09;5050270;28;20106;-67
2021/09/03 05:49:37;;;;;;;6.78;4.03;;;;;;;19.84;55.65;97051.94;5061428;28;20044;-66
2021/09/03 05:52:03;;;;;;;7.40;3.75;;;;;;;20.30;52.99;97049.63;5058956;28;20036;-64
2021/09/03 05:54:28;;;;;;;7.78;4.00;;;;;;;20.17;53.23;97057.78;5068686;28;20136;-67
2021/09/03 05:56:53;;;;;;;6.80;3.97;;;;;;;20.38;52.05;97059.44;5060598;28;20043;-67
2021/09/03 05:59:21;;;;;;;6.90;4.18;;;;;;;19.95;53.95;97059.31;5052619;28;20446;-66
2021/09/03 06:01:46;;;;;;;9.43;4.13;;;;;;;20.31;53.33;97056.78;5060018;28;20048;-67
2021/09/03 06:04:11;;;;;;;8.57;4.53;;;;;;;21.38;51.02;97064.38;5055603;28;20097;-67
2021/09/03 06:06:37;;;;;;;7.75;4.20;;;;;;;22.43;47.35;97057.25;5060421;28;20048;-66
2021/09/03 06:09:03;;;;;;;7.35;4.18;;;;;;;22.55;48.06;97059.34;5055831;28;20486;-63
2021/09/03 06:11:28;;;;;;;8.25;4.70;;;;;;;22.57;46.23;97051.31;5056642;28;20534;-66
2021/09/03 06:13:54;;;;;;;8.02;4.45;;;;;;;23.36;44.95;97054.78;5057663;28;20040;-66
2021/09/03 06:16:21;;;;;;;7.28;4.32;;;;;;;23.36;45.14;97049.19;5044178;28;20091;-65
2021/09/03 06:18:46;;;;;;;8.05;5.10;;;;;;;23.39;44.44;97047.50;5050327;28;20121;-66
2021/09/03 06:21:11;;;;;;;13.30;6.10;;;;;;;22.65;46.57;97047.13;5045087;28;20485;-66
2021/09/03 06:23:37;;;;;;;9.35;4.72;;;;;;;22.52;47.23;97052.63;5059468;28;20040;-66
2021/09/03 06:26:03;;;;;;;9.77;4.70;;;;;;;23.61;44.20;97047.69;5047705;28;20512;-63
2021/09/03 06:28:28;;;;;;;11.30;4.82;;;;;;;23.95;43.08;97054.66;5035271;28;20410;-66
2021/09/03 06:30:54;;;;;;;8.57;4.90;;;;;;;23.85;43.87;97048.94;5039568;28;20045;-66
2021/09/03 06:33:20;;;;;;;8.73;5.22;;;;;;;22.84;46.57;97053.78;5053047;28;20036;-66
2021/09/03 06:35:45;;;;;;;6.35;4.35;;;;;;;23.01;45.38;97051.75;5059286;28;20094;-67
2021/09/03 06:38:10;;;;;;;8.35;4.88;;;;;;;23.19;44.30;97054.06;5030853;28;20033;-66
2021/09/03 06:40:36;;;;;;;8.48;4.40;;;;;;;24.51;42.60;97056.84;5047059;28;20080;-67
2021/09/03 06:43:01;;;;;;;8.75;4.80;;;;;;;24.93;41.36;97050.25;5034326;28;20397;-67
2021/09/03 06:45:26;;;;;;;8.18;4.53;;;;;;;25.42;40.52;97054.53;5042780;28;20138;-66
2021/09/03 06:47:52;;;;;;;6.53;4.35;;;;;;;25.58;40.04;97053.53;5046456;28;20060;-67
2021/09/03 06:50:18;;;;;;;7.50;4.93;;;;;;;25.02;40.73;97061.53;5042379;28;20052;-66
2021/09/03 06:52:44;;;;;;;9.48;4.90;;;;;;;25.32;40.08;97062.09;5038516;28;20041;-66
2021/09/03 06:55:11;;;;;;;10.13;5.22;;;;;;;24.42;42.12;97059.56;5034330;28;20044;-65
2021/09/03 06:57:40;;;;;;;9.23;5.20;;;;;;;24.96;40.76;97063.34;5036225;28;20088;-67
2021/09/03 07:00:07;;;;;;;7.68;4.82;;;;;;;25.66;40.33;97063.22;5029595;28;20044;-67
2021/09/03 07:02:32;;;;;;;12.18;6.70;;;;;;;24.04;43.23;97063.19;5037189;28;20114;-65
2021/09/03 07:04:58;;;;;;;11.30;5.93;;;;;;;22.90;45.30;97056.81;5054081;28;20489;-67
2021/09/03 07:07:23;;;;;;;10.27;6.53;;;;;;;21.12;51.40;97068.84;5054419;28;20051;-67
2021/09/03 07:09:49;;;;;;;10.35;6.25;;;;;;;22.41;47.99;97063.28;5058421;28;20040;-67
2021/09/03 07:12:14;;;;;;;10.00;5.70;;;;;;;21.85;50.40;97057.81;5053434;28;20044;-66
2021/09/03 07:14:40;;;;;;;10.05;5.68;;;;;;;23.14;47.26;97068.59;5058834;28;20076;-67
2021/09/03 07:17:06;;;;;;;10.27;5.65;;;;;;;24.08;45.86;97057.47;5054010;28;20055;-64
2021/09/03 07:19:34;;;;;;;10.80;5.88;;;;;;;23.36;47.01;97062.38;5056931;28;20044;-66
2021/09/03 07:22:01;;;;;;;9.20;6.00;;;;;;;22.69;48.88;97052.63;5058248;28;20040;-67
2021/09/03 07:24:26;;;;;;;12.25;6.63;;;;;;;19.69;57.27;97056.09;5050500;28;20048;-66
2021/09/03 07:26:52;;;;;;;10.63;5.97;;;;;;;19.80;57.04;97062.31;5056876;28;20402;-66
2021/09/03 07:29:17;;;;;;;9.85;6.00;;;;;;;21.91;52.84;97061.66;5051294;28;20374;-67
2021/09/03 07:31:42;;;;;;;9.85;6.30;;;;;;;22.55;49.67;97064.16;5051500;28;20123;-67
2021/09/03 07:34:08;;;;;;;11.93;6.65;;;;;;;23.90;45.92;97061.59;5053054;28;20052;-66
2021/09/03 07:36:33;;;;;;;13.38;5.57;;;;;;;24.48;44.82;97065.38;5058699;28;20041;-68
2021/09/03 07:38:59;;;;;;;8.48;4.90;;;;;;;25.26;43.42;97059.06;5058099;28;20552;-66
2021/09/03 07:41:24;;;;;;;10.10;5.45;;;;;;;26.93;38.15;97063.34;5044197;28;20458;-66
2021/09/03 07:43:50;;;;;;;7.05;4.53;;;;;;;27.52;37.10;97059.59;5056040;28;20040;-67
2021/09/03 07:46:16;;;;;;;7.90;4.90;;;;;;;27.71;37.31;97066.72;5056408;28;20036;-67
2021/09/03 07:48:41;;;;;;;9.65;5.30;;;;;;;27.17;37.61;97071.16;5063682;28;20048;-66
2021/09/03 07:51:06;;;;;;;10.38;5.38;;;;;;;26.02;39.76;97071.09;5056125;28;20417;-65
2021/09/03 07:53:32;;;;;;;7.43;4.88;;;;;;;26.26;39.78;97070.53;5063026;28;20086;-67
2021/09/03 07:55:58;;;;;;;9.43;5.57;;;;;;;27.43;37.67;97071.63;5063059;28;20190;-67
2021/09/03 07:58:23;;;;;;;12.30;5.40;;;;;;;26.72;39.36;97070.66;5054178;28;20044;-67
2021/09/03 08:00:49;;;;;;;9.57;4.88;;;;;;;26.43;39.36;97071.03;5062658;28;20045;-66
2021/09/03 08:03:14;;;;;;;9.52;5.50;;;;;;;26.81;39.49;97079.13;5056208;28;20135;-67
2021/09/03 08:05:39;;;;;;;7.53;4.57;;;;;;;27.67;37.28;97074.56;5057591;28;20520;-66
2021/09/03 08:08:06;;;;;;;8.88;5.45;;;;;;;25.41;40.89;97073.38;5056789;28;20044;-65
2021/09/03 08:10:33;;;;;;;7.53;4.60;;;;;;;26.10;40.57;97080.00;5062164;28;20197;-66
2021/09/03 08:13:02;;;;;;;10.00;4.53;;;;;;;27.20;38.64;97075.84;5061414;28;20819;-66
2021/09/03 08:15:29;;;;;;;8.45;4.88;;;;;;;28.10;36.58;97071.78;5051628;28;20127;-67
2021/09/03 08:17:55;;;;;;;7.88;4.80;;;;;;;28.57;35.68;97065.47;5062238;28;20393;-68
2021/09/03 08:20:21;;;;;;;6.65;4.38;;;;;;;26.96;38.76;97070.09;5035150;28;20042;-68
2021/09/03 08:22:48;;;;;;;7.30;5.13;;;;;;;27.18;38.07;97075.53;5047333;28;20056;-67
2021/09/03 08:25:14;;;;;;;6.50;4.47;;;;;;;27.79;37.20;97072.81;5036104;28;20041;-66
2021/09/03 08:27:40;;;;;;;10.70;5.28;;;;;;;26.72;38.33;97067.06;5034141;28;20041;-65
2021/09/03 08:30:06;;;;;;;8.65;5.45;;;;;;;26.77;38.58;97074.88;5034787;28;20406;-67
2021/09/03 08:32:32;;;;;;;11.80;5.30;;;;;;;27.91;36.44;97073.88;5041373;28;20638;-67
2021/09/03 08:34:58;;;;;;;9.88;4.90;;;;;;;26.48;38.92;97074.03;5038248;28;20041;-67
2021/09/03 08:37:23;;;;;;;11.35;4.97;;;;;;;25.29;41.19;97074.22;5054450;28;20159;-67
2021/09/03 08:39:49;;;;;;;8.55;4.75;;;;;;;26.72;38.95;97062.22;5061247;28;20048;-67
2021/09/03 08:42:15;;;;;;;6.80;4.38;;;;;;;26.33;39.98;97070.25;5056003;28;20051;-66
2021/09/03 08:44:40;;;;;;;8.88;4.75;;;;;;;27.21;38.62;97068.97;5076494;28;20040;-67
2021/09/03 08:47:08;;;;;;;7.38;4.70;;;;;;;28.26;36.04;97067.81;5057006;28;20182;-65
2021/09/03 08:49:34;;;;;;;11.25;5.30;;;;;;;26.23;39.58;97074.28;5055963;28;20060;-67
2021/09/03 08:51:59;;;;;;;10.45;4.70;;;;;;;26.74;40.33;97071.00;5060910;28;20041;-68
2021/09/03 08:54:25;;;;;;;7.88;4.47;;;;;;;26.21;41.53;97071.16;5055952;28;20840;-67
2021/09/03 08:56:50;;;;;;;8.88;5.20;;;;;;;25.81;41.67;97074.69;5061092;28;20072;-66
2021/09/03 08:59:16;;;;;;;8.55;5.57;;;;;;;25.73;41.88;97068.56;5055664;28;20057;-68
2021/09/03 09:01:41;;;;;;;9.55;5.53;;;;;;;26.03;41.21;97072.63;5059868;28;20485;-67
2021/09/03 09:04:13;;;;;;;9.18;4.93;;;;;;;26.55;40.63;97075.00;5041185;28;20053;-67
2021/09/03 09:06:41;;;;;;;11.13;5.40;;;;;;;27.36;39.82;97072.72;5054870;28;20140;-68
2021/09/03 09:09:07;;;;;;;8.38;4.85;;;;;;;27.49;38.75;97069.75;5029327;28;20046;-67
2021/09/03 09:11:35;;;;;;;9.85;5.22;;;;;;;26.88;40.73;97073.19;5036093;28;20102;-68
2021/09/03 09:14:10;;;;;;;9.75;5.43;;;;;;;26.58;40.00;97074.84;5027576;28;20049;-67
2021/09/03 09:16:35;;;;;;;9.98;5.45;;;;;;;26.72;40.16;97078.31;5041036;28;20048;-66
2021/09/03 09:19:03;;;;;;;12.07;5.93;;;;;;;26.11;41.43;97075.97;5058823;28;20521;-65
2021/09/03 09:21:39;;;;;;;8.77;5.57;;;;;;;26.39;42.11;97078.84;5054366;28;20044;-67
2021/09/03 09:24:08;;;;;;;7.72;5.28;;;;;;;26.75;40.80;97066.94;5051475;28;20135;-63
2021/09/03 09:26:47;;;;;;;8.90;5.55;;;;;;;27.15;40.20;97068.03;5060075;28;20144;-68
2021/09/03 09:29:15;;;;;;;11.95;5.80;;;;;;;26.41;40.90;97070.72;5053467;28;20067;-67
2021/09/03 09:31:41;;;;;;;10.68;6.38;;;;;;;22.16;51.38;97063.84;5058456;28;20037;-67
2021/09/03 09:34:13;;;;;;;7.95;4.78;;;;;;;24.24;47.57;97060.13;5054597;28;20051;-66
2021/09/03 09:36:39;;;;;;;10.40;5.28;;;;;;;24.75;45.73;97062.84;5059572;28;20052;-68
2021/09/03 09:39:05;;;;;;;9.68;6.05;;;;;;;24.09;47.67;97057.00;5051778;28;20072;-68
2021/09/03 09:41:31;;;;;;;8.73;5.30;;;;;;;26.03;43.48;97055.78;5060647;28;20133;-68
2021/09/03 09:43:56;;;;;;;8.88;5.00;;;;;;;26.65;42.31;97052.09;5058924;28;20044;-67
2021/09/03 09:46:31;;;;;;;8.30;5.07;;;;;;;27.58;40.63;97041.59;5054562;28;20852;-66
2021/09/03 09:49:02;;;;;;;11.60;5.05;;;;;;;27.81;39.29;97044.97;5059718;28;20524;-66
2021/09/03 09:51:49;;;;;;;9.38;5.63;;;;;;;27.39;40.25;97045.72;5046452;28;20070;-68
2021/09/03 09:54:22;;;;;;;9.10;4.40;;;;;;;27.64;41.00;97048.16;5052127;28;20052;-67
2021/09/03 09:56:51;;;;;;;9.45;5.45;;;;;;;26.56;42.42;97045.63;5060050;28;20097;-68
2021/09/03 09:59:18;;;;;;;11.65;6.38;;;;;;;27.06;40.97;97041.50;5050379;28;20489;-66
2021/09/03 10:01:46;;;;;;;12.95;5.82;;;;;;;26.89;42.10;97054.31;5060579;28;20044;-67
2021/09/03 10:04:14;;;;;;;14.73;6.43;;;;;;;26.75;42.54;97049.28;5054725;28;20032;-65
2021/09/03 10:06:43;;;;;;;8.60;5.23;;;;;;;26.67;43.23;97040.41;5059310;28;20120;-67
2021/09/03 10:09:13;;;;;;;10.07;6.28;;;;;;;26.33;43.50;97051.38;5052330;28;20106;-67
2021/09/03 10:11:42;;;;;;;9.05;5.30;;;;;;;26.02;44.86;97048.63;5043619;28;20044;-66
2021/09/03 10:14:09;;;;;;;11.80;6.03;;;;;;;26.17;43.90;97051.63;5051819;28;20155;-63
2021/09/03 10:16:36;;;;;;;10.10;6.75;;;;;;;25.73;44.84;97048.91;5025542;28;20041;-67
2021/09/03 10:19:05;;;;;;;11.15;6.95;;;;;;;25.52;45.69;97050.53;5053250;28;20037;-67
2021/09/03 10:21:36;;;;;;;11.65;6.70;;;;;;;25.70;45.51;97044.25;5053362;28;20049;-66
2021/09/03 10:24:01;;;;;;;10.68;6.45;;;;;;;25.72;45.19;97044.56;5048308;28;20032;-66
2021/09/03 10:26:30;;;;;;;10.30;5.53;;;;;;;26.19;44.16;97046.34;5054539;28;20041;-66
2021/09/03 10:29:17;;;;;;;10.50;5.97;;;;;;;25.80;44.95;97036.66;5059305;28;20294;-67
2021/09/03 10:32:05;;;;;;;10.32;6.97;;;;;;;25.55;45.60;97035.56;5057940;28;20679;-67
2021/09/03 10:34:40;;;;;;;11.90;6.55;;;;;;;25.50;45.66;97027.78;5060132;28;20041;-68
2021/09/03 10:37:30;;;;;;;12.25;6.70;;;;;;;25.58;45.54;97025.47;5038329;28;20064;-65
2021/09/03 10:40:03;;;;;;;14.15;6.00;;;;;;;25.28;46.03;97020.19;5043057;28;20143;-66
2021/09/03 10:42:34;;;;;;;10.55;6.80;;;;;;;24.51;47.46;97022.47;5048635;28;20153;-68
2021/09/03 10:45:06;;;;;;;11.38;6.03;;;;;;;24.80;48.10;97016.69;5060826;28;20036;-67
2021/09/03 10:47:42;;;;;;;9.98;6.10;;;;;;;24.93;47.58;97016.63;5051011;28;20048;-67
2021/09/03 10:50:19;;;;;;;8.63;5.57;;;;;;;24.82;48.48;97014.22;5052763;28;20127;-67
2021/09/03 10:53:06;;;;;;;9.82;6.50;;;;;;;25.14;48.02;97012.28;5056703;28;20565;-68
2021/09/03 10:55:50;;;;;;;9.63;6.07;;;;;;;26.08;44.56;97013.09;5049254;28;20040;-65
2021/09/03 10:58:54;;;;;;;8.93;5.90;;;;;;;24.36;48.46;97008.97;5052335;28;20094;-65
2021/09/03 11:01:29;;;;;;;11.05;6.50;;;;;;;24.30;50.68;97001.56;5054330;28;20178;-66
2021/09/03 11:04:14;;;;;;;10.70;6.07;;;;;;;24.71;48.54;97000.59;5058826;28;20044;-67
2021/09/03 11:07:07;;;;;;;11.27;7.20;;;;;;;24.17;50.50;96996.00;5040364;28;20079;-65
2021/09/03 11:09:32;;;;;;;13.65;7.22;;;;;;;24.26;51.91;96989.72;5039949;28;20044;-66
2021/09/03 11:12:07;;;;;;;12.40;6.70;;;;;;;24.13;51.86;96995.31;5056804;28;20327;-67
2021/09/03 11:14:33;;;;;;;11.10;6.85;;;;;;;23.98;52.21;96993.00;5055679;28;20151;-67
2021/09/03 11:17:04;;;;;;;11.90;6.68;;;;;;;24.16;52.48;96991.63;5047740;28;20148;-67
2021/09/03 11:19:32;;;;;;;10.57;7.35;;;;;;;24.04;51.58;96993.22;5056111;28;20102;-68
2021/09/03 11:21:59;;;;;;;11.15;6.20;;;;;;;23.71;53.04;96987.84;5062039;28;20423;-68
2021/09/03 11:24:29;;;;;;;11.88;6.25;;;;;;;24.18;52.13;96987.16;5056264;28;20048;-66
2021/09/03 11:26:56;;;;;;;9.07;5.65;;;;;;;24.42;51.23;96983.97;5058722;28;20117;-68
2021/09/03 11:29:41;;;;;;;12.32;7.38;;;;;;;24.12;51.83;96976.97;5045089;28;20933;-66